sensor_id;sensor_type;location;lat;lon;timestamp;pressure;altitude;pressure_sealevel;temperature;humidity
41044;BME280;51680;49.806;18.774;2024-02-21T00:00:48;98017.41;;;8.47;83.96
41044;BME280;51680;49.806;18.774;2024-02-21T00:03:52;98016.84;;;8.41;83.88
41044;BME280;51680;49.806;18.774;2024-02-21T00:06:54;98016.28;;;8.34;83.79
41044;BME280;51680;49.806;18.774;2024-02-21T00:09:55;98013.03;;;8.29;83.68
41044;BME280;51680;49.806;18.774;2024-02-21T00:12:57;98009.94;;;8.21;83.78
41044;BME280;51680;49.806;18.774;2024-02-21T00:16:00;98003.06;;;8.19;84.09
41044;BME280;51680;49.806;18.774;2024-02-21T00:19:03;97997.94;;;8.17;84.15
41044;BME280;51680;49.806;18.774;2024-02-21T00:22:05;97998.84;;;8.16;84.18
41044;BME280;51680;49.806;18.774;2024-02-21T00:25:07;97996.25;;;8.16;84.27
41044;BME280;51680;49.806;18.774;2024-02-21T00:28:09;98000.94;;;8.08;84.31
41044;BME280;51680;49.806;18.774;2024-02-21T00:31:12;97995.69;;;8.10;84.27
41044;BME280;51680;49.806;18.774;2024-02-21T00:34:15;98003.41;;;8.11;84.09
41044;BME280;51680;49.806;18.774;2024-02-21T00:37:17;97993.78;;;8.13;84.02
41044;BME280;51680;49.806;18.774;2024-02-21T00:40:19;97985.97;;;8.13;84.23
41044;BME280;51680;49.806;18.774;2024-02-21T00:43:22;97978.63;;;8.04;83.89
41044;BME280;51680;49.806;18.774;2024-02-21T00:46:24;97981.22;;;8.04;84.27
41044;BME280;51680;49.806;18.774;2024-02-21T00:49:28;97971.06;;;7.98;84.19
41044;BME280;51680;49.806;18.774;2024-02-21T00:52:29;97969.44;;;7.96;84.34
41044;BME280;51680;49.806;18.774;2024-02-21T00:55:31;97962.22;;;7.84;84.38
41044;BME280;51680;49.806;18.774;2024-02-21T00:58:33;97966.72;;;7.80;84.28
41044;BME280;51680;49.806;18.774;2024-02-21T01:01:35;97965.38;;;7.70;84.48
41044;BME280;51680;49.806;18.774;2024-02-21T01:04:38;97966.19;;;7.72;84.71
41044;BME280;51680;49.806;18.774;2024-02-21T01:07:40;97959.38;;;7.70;84.46
41044;BME280;51680;49.806;18.774;2024-02-21T01:10:42;97958.78;;;7.63;84.26
41044;BME280;51680;49.806;18.774;2024-02-21T01:13:44;97965.06;;;7.58;84.52
41044;BME280;51680;49.806;18.774;2024-02-21T01:16:46;97952.03;;;7.59;84.38
41044;BME280;51680;49.806;18.774;2024-02-21T01:19:49;97954.69;;;7.58;84.69
41044;BME280;51680;49.806;18.774;2024-02-21T01:22:51;97946.31;;;7.51;84.29
41044;BME280;51680;49.806;18.774;2024-02-21T01:25:53;97950.84;;;7.46;84.48
41044;BME280;51680;49.806;18.774;2024-02-21T01:28:55;97952.56;;;7.47;84.46
41044;BME280;51680;49.806;18.774;2024-02-21T01:31:57;97942.09;;;7.49;84.38
41044;BME280;51680;49.806;18.774;2024-02-21T01:35:00;97939.66;;;7.46;84.45
41044;BME280;51680;49.806;18.774;2024-02-21T01:38:02;97950.84;;;7.46;84.36
41044;BME280;51680;49.806;18.774;2024-02-21T01:41:05;97945.66;;;7.46;84.20
41044;BME280;51680;49.806;18.774;2024-02-21T01:44:07;97939.44;;;7.50;83.98
41044;BME280;51680;49.806;18.774;2024-02-21T01:47:10;97933.19;;;7.54;84.04
41044;BME280;51680;49.806;18.774;2024-02-21T01:50:16;97924.44;;;7.57;83.91
41044;BME280;51680;49.806;18.774;2024-02-21T01:53:20;97927.88;;;7.57;84.06
41044;BME280;51680;49.806;18.774;2024-02-21T01:56:22;97926.31;;;7.53;83.51
41044;BME280;51680;49.806;18.774;2024-02-21T01:59:25;97922.88;;;7.53;83.28
41044;BME280;51680;49.806;18.774;2024-02-21T02:02:27;97919.28;;;7.55;83.71
41044;BME280;51680;49.806;18.774;2024-02-21T02:05:30;97921.72;;;7.60;83.09
41044;BME280;51680;49.806;18.774;2024-02-21T02:08:33;97915.78;;;7.56;83.29
41044;BME280;51680;49.806;18.774;2024-02-21T02:11:35;97924.31;;;7.60;83.61
41044;BME280;51680;49.806;18.774;2024-02-21T02:14:37;97918.91;;;7.64;83.34
41044;BME280;51680;49.806;18.774;2024-02-21T02:17:39;97917.84;;;7.68;83.47
41044;BME280;51680;49.806;18.774;2024-02-21T02:20:43;97913.69;;;7.64;83.55
41044;BME280;51680;49.806;18.774;2024-02-21T02:23:47;97911.91;;;7.66;83.23
41044;BME280;51680;49.806;18.774;2024-02-21T02:26:49;97905.22;;;7.61;83.45
41044;BME280;51680;49.806;18.774;2024-02-21T02:29:50;97905.28;;;7.59;83.50
41044;BME280;51680;49.806;18.774;2024-02-21T02:32:53;97895.00;;;7.56;83.13
41044;BME280;51680;49.806;18.774;2024-02-21T02:35:55;97894.38;;;7.51;83.81
41044;BME280;51680;49.806;18.774;2024-02-21T02:38:58;97898.56;;;7.54;83.63
41044;BME280;51680;49.806;18.774;2024-02-21T02:42:00;97899.44;;;7.54;83.36
41044;BME280;51680;49.806;18.774;2024-02-21T02:45:02;97896.78;;;7.56;83.77
41044;BME280;51680;49.806;18.774;2024-02-21T02:48:04;97901.00;;;7.58;83.25
41044;BME280;51680;49.806;18.774;2024-02-21T02:51:06;97897.34;;;7.62;83.63
41044;BME280;51680;49.806;18.774;2024-02-21T02:54:09;97889.81;;;7.56;83.21
41044;BME280;51680;49.806;18.774;2024-02-21T02:57:11;97888.28;;;7.52;83.17
41044;BME280;51680;49.806;18.774;2024-02-21T03:00:14;97884.75;;;7.53;83.55
41044;BME280;51680;49.806;18.774;2024-02-21T03:03:16;97891.75;;;7.51;83.52
41044;BME280;51680;49.806;18.774;2024-02-21T03:06:18;97889.97;;;7.53;83.40
41044;BME280;51680;49.806;18.774;2024-02-21T03:09:21;97889.25;;;7.50;83.53
41044;BME280;51680;49.806;18.774;2024-02-21T03:12:23;97886.72;;;7.48;83.42
41044;BME280;51680;49.806;18.774;2024-02-21T03:15:28;97887.75;;;7.44;83.22
41044;BME280;51680;49.806;18.774;2024-02-21T03:18:30;97875.75;;;7.42;83.05
41044;BME280;51680;49.806;18.774;2024-02-21T03:21:32;97873.69;;;7.50;83.25
41044;BME280;51680;49.806;18.774;2024-02-21T03:24:35;97879.69;;;7.50;82.99
41044;BME280;51680;49.806;18.774;2024-02-21T03:27:37;97878.78;;;7.51;83.21
41044;BME280;51680;49.806;18.774;2024-02-21T03:30:39;97883.72;;;7.57;83.12
41044;BME280;51680;49.806;18.774;2024-02-21T03:33:42;97878.66;;;7.54;82.92
41044;BME280;51680;49.806;18.774;2024-02-21T03:36:44;97872.75;;;7.51;82.93
41044;BME280;51680;49.806;18.774;2024-02-21T03:39:47;97868.25;;;7.54;82.31
41044;BME280;51680;49.806;18.774;2024-02-21T03:42:49;97864.81;;;7.54;82.13
41044;BME280;51680;49.806;18.774;2024-02-21T03:45:51;97864.91;;;7.52;82.59
41044;BME280;51680;49.806;18.774;2024-02-21T03:48:53;97868.53;;;7.48;82.45
41044;BME280;51680;49.806;18.774;2024-02-21T03:51:55;97869.47;;;7.47;82.53
41044;BME280;51680;49.806;18.774;2024-02-21T03:54:58;97869.47;;;7.47;82.53
41044;BME280;51680;49.806;18.774;2024-02-21T03:58:00;97871.97;;;7.49;82.84
41044;BME280;51680;49.806;18.774;2024-02-21T04:01:02;97872.69;;;7.52;82.90
41044;BME280;51680;49.806;18.774;2024-02-21T04:04:04;97864.25;;;7.47;82.97
41044;BME280;51680;49.806;18.774;2024-02-21T04:07:06;97858.78;;;7.53;82.76
41044;BME280;51680;49.806;18.774;2024-02-21T04:10:10;97870.44;;;7.63;82.51
41044;BME280;51680;49.806;18.774;2024-02-21T04:13:12;97853.53;;;7.55;82.59
41044;BME280;51680;49.806;18.774;2024-02-21T04:16:14;97859.97;;;7.46;82.61
41044;BME280;51680;49.806;18.774;2024-02-21T04:19:16;97862.06;;;7.38;83.30
41044;BME280;51680;49.806;18.774;2024-02-21T04:22:18;97859.53;;;7.37;82.75
41044;BME280;51680;49.806;18.774;2024-02-21T04:25:21;97867.75;;;7.46;82.92
41044;BME280;51680;49.806;18.774;2024-02-21T04:28:23;97866.72;;;7.50;82.64
41044;BME280;51680;49.806;18.774;2024-02-21T04:31:24;97869.19;;;7.53;82.14
41044;BME280;51680;49.806;18.774;2024-02-21T04:34:26;97864.16;;;7.49;81.98
41044;BME280;51680;49.806;18.774;2024-02-21T04:37:28;97860.75;;;7.48;81.96
41044;BME280;51680;49.806;18.774;2024-02-21T04:40:31;97862.56;;;7.46;82.16
41044;BME280;51680;49.806;18.774;2024-02-21T04:43:33;97857.44;;;7.45;82.11
41044;BME280;51680;49.806;18.774;2024-02-21T04:46:35;97855.69;;;7.45;82.17
41044;BME280;51680;49.806;18.774;2024-02-21T04:49:38;97855.75;;;7.44;81.78
41044;BME280;51680;49.806;18.774;2024-02-21T04:52:40;97843.88;;;7.38;81.86
41044;BME280;51680;49.806;18.774;2024-02-21T04:55:43;97846.28;;;7.43;82.16
41044;BME280;51680;49.806;18.774;2024-02-21T04:58:45;97842.06;;;7.40;81.96
41044;BME280;51680;49.806;18.774;2024-02-21T05:01:46;97841.34;;;7.37;81.66
41044;BME280;51680;49.806;18.774;2024-02-21T05:04:48;97844.94;;;7.34;82.17
41044;BME280;51680;49.806;18.774;2024-02-21T05:07:50;97843.59;;;7.26;81.99
41044;BME280;51680;49.806;18.774;2024-02-21T05:10:53;97838.47;;;7.24;81.73
41044;BME280;51680;49.806;18.774;2024-02-21T05:13:55;97837.94;;;7.16;82.06
41044;BME280;51680;49.806;18.774;2024-02-21T05:16:57;97835.06;;;7.22;82.34
41044;BME280;51680;49.806;18.774;2024-02-21T05:19:59;97826.56;;;7.19;82.12
41044;BME280;51680;49.806;18.774;2024-02-21T05:23:01;97837.41;;;7.28;81.77
41044;BME280;51680;49.806;18.774;2024-02-21T05:26:04;97828.19;;;7.21;81.72
41044;BME280;51680;49.806;18.774;2024-02-21T05:29:06;97832.63;;;7.19;82.07
41044;BME280;51680;49.806;18.774;2024-02-21T05:32:08;97834.41;;;7.17;82.31
41044;BME280;51680;49.806;18.774;2024-02-21T05:35:10;97834.31;;;7.20;82.20
41044;BME280;51680;49.806;18.774;2024-02-21T05:38:11;97841.97;;;7.23;82.13
41044;BME280;51680;49.806;18.774;2024-02-21T05:41:15;97830.16;;;7.16;81.73
41044;BME280;51680;49.806;18.774;2024-02-21T05:44:17;97830.22;;;7.15;81.99
41044;BME280;51680;49.806;18.774;2024-02-21T05:47:18;97833.13;;;7.07;82.04
41044;BME280;51680;49.806;18.774;2024-02-21T05:50:21;97831.34;;;7.09;82.07
41044;BME280;51680;49.806;18.774;2024-02-21T05:53:24;97827.56;;;7.16;81.78
41044;BME280;51680;49.806;18.774;2024-02-21T05:56:27;97819.59;;;7.21;81.95
41044;BME280;51680;49.806;18.774;2024-02-21T05:59:29;97818.66;;;7.22;81.69
41044;BME280;51680;49.806;18.774;2024-02-21T06:02:31;97831.25;;;7.31;81.53
41044;BME280;51680;49.806;18.774;2024-02-21T06:05:36;97830.69;;;7.43;81.77
41044;BME280;51680;49.806;18.774;2024-02-21T06:08:39;97821.16;;;7.43;81.05
41044;BME280;51680;49.806;18.774;2024-02-21T06:11:42;97817.91;;;7.75;80.82
41044;BME280;51680;49.806;18.774;2024-02-21T06:14:44;97825.25;;;8.04;79.83
41044;BME280;51680;49.806;18.774;2024-02-21T06:17:46;97816.56;;;8.58;78.73
41044;BME280;51680;49.806;18.774;2024-02-21T06:20:48;97819.50;;;8.69;78.01
41044;BME280;51680;49.806;18.774;2024-02-21T06:23:50;97818.47;;;8.88;77.60
41044;BME280;51680;49.806;18.774;2024-02-21T06:26:53;97813.91;;;8.76;77.31
41044;BME280;51680;49.806;18.774;2024-02-21T06:29:55;97825.97;;;8.43;78.04
41044;BME280;51680;49.806;18.774;2024-02-21T06:32:57;97816.63;;;8.21;78.59
41044;BME280;51680;49.806;18.774;2024-02-21T06:35:59;97825.06;;;8.07;79.11
41044;BME280;51680;49.806;18.774;2024-02-21T06:39:01;97821.03;;;8.02;79.74
41044;BME280;51680;49.806;18.774;2024-02-21T06:42:06;97818.50;;;8.00;79.88
41044;BME280;51680;49.806;18.774;2024-02-21T06:45:08;97821.88;;;7.84;80.31
41044;BME280;51680;49.806;18.774;2024-02-21T06:48:10;97824.53;;;7.82;80.06
41044;BME280;51680;49.806;18.774;2024-02-21T06:51:12;97827.13;;;7.82;80.76
41044;BME280;51680;49.806;18.774;2024-02-21T06:54:14;97831.41;;;7.83;80.74
41044;BME280;51680;49.806;18.774;2024-02-21T06:57:17;97821.31;;;7.77;80.69
41044;BME280;51680;49.806;18.774;2024-02-21T07:00:19;97830.56;;;7.64;80.46
41044;BME280;51680;49.806;18.774;2024-02-21T07:03:21;97820.19;;;7.64;81.04
41044;BME280;51680;49.806;18.774;2024-02-21T07:06:24;97825.59;;;7.78;81.04
41044;BME280;51680;49.806;18.774;2024-02-21T07:09:26;97821.50;;;7.91;80.67
41044;BME280;51680;49.806;18.774;2024-02-21T07:12:30;97820.72;;;7.89;80.53
41044;BME280;51680;49.806;18.774;2024-02-21T07:15:32;97816.50;;;8.05;80.77
41044;BME280;51680;49.806;18.774;2024-02-21T07:18:34;97812.69;;;8.12;80.25
41044;BME280;51680;49.806;18.774;2024-02-21T07:21:36;97812.16;;;8.24;80.32
41044;BME280;51680;49.806;18.774;2024-02-21T07:24:41;97821.75;;;8.41;79.89
41044;BME280;51680;49.806;18.774;2024-02-21T07:27:45;97812.28;;;8.57;79.61
41044;BME280;51680;49.806;18.774;2024-02-21T07:30:47;97807.44;;;8.66;79.55
41044;BME280;51680;49.806;18.774;2024-02-21T07:33:49;97806.25;;;8.73;79.45
41044;BME280;51680;49.806;18.774;2024-02-21T07:36:51;97808.53;;;8.79;78.86
41044;BME280;51680;49.806;18.774;2024-02-21T07:39:53;97802.78;;;8.90;78.79
41044;BME280;51680;49.806;18.774;2024-02-21T07:42:56;97807.81;;;9.10;79.09
41044;BME280;51680;49.806;18.774;2024-02-21T07:45:58;97793.47;;;9.18;78.29
41044;BME280;51680;49.806;18.774;2024-02-21T07:49:00;97796.41;;;9.12;77.84
41044;BME280;51680;49.806;18.774;2024-02-21T07:52:03;97797.84;;;9.18;77.49
41044;BME280;51680;49.806;18.774;2024-02-21T07:55:05;97797.38;;;9.27;77.84
41044;BME280;51680;49.806;18.774;2024-02-21T07:58:08;97788.50;;;9.46;77.11
41044;BME280;51680;49.806;18.774;2024-02-21T08:01:10;97789.38;;;9.78;76.58
41044;BME280;51680;49.806;18.774;2024-02-21T08:04:12;97777.41;;;10.36;74.64
41044;BME280;51680;49.806;18.774;2024-02-21T08:07:15;97774.06;;;11.35;72.22
41044;BME280;51680;49.806;18.774;2024-02-21T08:10:16;97769.34;;;12.36;69.65
41044;BME280;51680;49.806;18.774;2024-02-21T08:13:20;97754.81;;;13.46;65.10
41044;BME280;51680;49.806;18.774;2024-02-21T08:16:22;97746.81;;;15.36;62.45
41044;BME280;51680;49.806;18.774;2024-02-21T08:19:24;97749.97;;;16.16;60.03
41044;BME280;51680;49.806;18.774;2024-02-21T08:22:25;97748.28;;;16.15;58.54
41044;BME280;51680;49.806;18.774;2024-02-21T08:25:27;97751.78;;;16.16;58.91
41044;BME280;51680;49.806;18.774;2024-02-21T08:28:30;97756.75;;;15.65;58.56
41044;BME280;51680;49.806;18.774;2024-02-21T08:31:32;97757.13;;;15.15;60.12
41044;BME280;51680;49.806;18.774;2024-02-21T08:34:34;97753.91;;;15.23;60.08
41044;BME280;51680;49.806;18.774;2024-02-21T08:37:36;97742.56;;;16.10;58.43
41044;BME280;51680;49.806;18.774;2024-02-21T08:40:38;97739.03;;;15.45;58.67
41044;BME280;51680;49.806;18.774;2024-02-21T08:43:41;97737.47;;;14.86;59.06
41044;BME280;51680;49.806;18.774;2024-02-21T08:46:43;97738.63;;;14.37;60.16
41044;BME280;51680;49.806;18.774;2024-02-21T08:49:45;97729.91;;;14.36;60.48
41044;BME280;51680;49.806;18.774;2024-02-21T08:52:47;97718.66;;;17.27;56.90
41044;BME280;51680;49.806;18.774;2024-02-21T08:55:49;97718.44;;;19.33;52.56
41044;BME280;51680;49.806;18.774;2024-02-21T08:58:52;97713.63;;;21.83;46.76
41044;BME280;51680;49.806;18.774;2024-02-21T09:01:54;97713.06;;;23.10;44.24
41044;BME280;51680;49.806;18.774;2024-02-21T09:04:55;97711.75;;;23.85;43.18
41044;BME280;51680;49.806;18.774;2024-02-21T09:07:57;97721.19;;;25.09;41.46
41044;BME280;51680;49.806;18.774;2024-02-21T09:10:59;97714.78;;;25.70;39.38
41044;BME280;51680;49.806;18.774;2024-02-21T09:14:03;97719.56;;;25.89;35.67
41044;BME280;51680;49.806;18.774;2024-02-21T09:17:06;97733.59;;;25.25;38.75
41044;BME280;51680;49.806;18.774;2024-02-21T09:20:08;97727.63;;;26.18;37.29
41044;BME280;51680;49.806;18.774;2024-02-21T09:23:12;97710.91;;;26.16;35.60
41044;BME280;51680;49.806;18.774;2024-02-21T09:26:14;97713.31;;;26.11;36.18
41044;BME280;51680;49.806;18.774;2024-02-21T09:29:18;97723.72;;;24.66;36.72
41044;BME280;51680;49.806;18.774;2024-02-21T09:32:20;97729.53;;;23.46;39.00
41044;BME280;51680;49.806;18.774;2024-02-21T09:35:22;97729.56;;;23.22;39.24
41044;BME280;51680;49.806;18.774;2024-02-21T09:38:26;97719.88;;;23.13;35.12
41044;BME280;51680;49.806;18.774;2024-02-21T09:41:28;97721.53;;;23.14;39.21
41044;BME280;51680;49.806;18.774;2024-02-21T09:44:36;97715.88;;;22.85;36.97
41044;BME280;51680;49.806;18.774;2024-02-21T09:47:46;97720.97;;;20.77;38.67
41044;BME280;51680;49.806;18.774;2024-02-21T09:50:53;97720.03;;;19.53;42.08
41044;BME280;51680;49.806;18.774;2024-02-21T09:53:56;97727.09;;;19.06;40.56
41044;BME280;51680;49.806;18.774;2024-02-21T09:56:59;97727.81;;;19.64;44.39
41044;BME280;51680;49.806;18.774;2024-02-21T10:00:04;97716.09;;;20.20;41.43
41044;BME280;51680;49.806;18.774;2024-02-21T10:03:13;97718.03;;;19.37;43.84
41044;BME280;51680;49.806;18.774;2024-02-21T10:06:15;97713.78;;;18.60;44.52
41044;BME280;51680;49.806;18.774;2024-02-21T10:09:21;97716.91;;;17.67;45.27
41044;BME280;51680;49.806;18.774;2024-02-21T10:12:23;97722.44;;;17.13;47.11
41044;BME280;51680;49.806;18.774;2024-02-21T10:15:26;97709.44;;;16.39;48.76
41044;BME280;51680;49.806;18.774;2024-02-21T10:18:28;97704.06;;;15.87;50.06
41044;BME280;51680;49.806;18.774;2024-02-21T10:21:30;97698.81;;;15.54;49.81
41044;BME280;51680;49.806;18.774;2024-02-21T10:24:32;97699.69;;;15.44;49.99
41044;BME280;51680;49.806;18.774;2024-02-21T10:27:34;97692.75;;;16.39;48.90
41044;BME280;51680;49.806;18.774;2024-02-21T10:30:49;97695.59;;;17.98;44.55
41044;BME280;51680;49.806;18.774;2024-02-21T10:33:55;97684.50;;;18.04;43.80
41044;BME280;51680;49.806;18.774;2024-02-21T10:37:00;97692.22;;;17.77;46.00
41044;BME280;51680;49.806;18.774;2024-02-21T10:40:03;97690.97;;;17.21;46.80
41044;BME280;51680;49.806;18.774;2024-02-21T10:43:09;97680.47;;;16.60;47.71
41044;BME280;51680;49.806;18.774;2024-02-21T10:46:18;97675.22;;;16.28;46.69
41044;BME280;51680;49.806;18.774;2024-02-21T10:49:22;97683.09;;;15.97;48.48
41044;BME280;51680;49.806;18.774;2024-02-21T10:52:32;97667.22;;;15.76;47.89
41044;BME280;51680;49.806;18.774;2024-02-21T10:55:45;97676.59;;;15.47;48.45
41044;BME280;51680;49.806;18.774;2024-02-21T10:58:50;97671.31;;;15.25;49.90
41044;BME280;51680;49.806;18.774;2024-02-21T11:01:53;97670.94;;;14.97;50.14
41044;BME280;51680;49.806;18.774;2024-02-21T11:04:55;97678.91;;;14.73;51.00
41044;BME280;51680;49.806;18.774;2024-02-21T11:07:58;97669.72;;;14.68;50.74
41044;BME280;51680;49.806;18.774;2024-02-21T11:11:00;97669.38;;;14.38;51.16
41044;BME280;51680;49.806;18.774;2024-02-21T11:14:06;97662.22;;;14.16;50.58
41044;BME280;51680;49.806;18.774;2024-02-21T11:17:16;97658.53;;;13.95;51.53
41044;BME280;51680;49.806;18.774;2024-02-21T11:20:19;97657.75;;;13.82;52.78
41044;BME280;51680;49.806;18.774;2024-02-21T11:23:25;97652.91;;;13.65;52.83
41044;BME280;51680;49.806;18.774;2024-02-21T11:26:28;97642.31;;;13.54;53.79
41044;BME280;51680;49.806;18.774;2024-02-21T11:29:30;97641.34;;;13.32;53.77
41044;BME280;51680;49.806;18.774;2024-02-21T11:32:34;97648.38;;;13.31;54.33
41044;BME280;51680;49.806;18.774;2024-02-21T11:35:38;97641.38;;;13.19;54.59
41044;BME280;51680;49.806;18.774;2024-02-21T11:38:40;97633.72;;;13.04;54.80
41044;BME280;51680;49.806;18.774;2024-02-21T11:41:41;97634.28;;;12.96;55.63
41044;BME280;51680;49.806;18.774;2024-02-21T11:44:43;97623.38;;;13.02;55.93
41044;BME280;51680;49.806;18.774;2024-02-21T11:47:47;97630.28;;;13.03;55.64
41044;BME280;51680;49.806;18.774;2024-02-21T11:50:53;97626.53;;;13.07;55.77
41044;BME280;51680;49.806;18.774;2024-02-21T11:53:56;97616.84;;;12.95;56.06
41044;BME280;51680;49.806;18.774;2024-02-21T11:56:58;97614.22;;;12.95;56.03
41044;BME280;51680;49.806;18.774;2024-02-21T12:00:11;97612.69;;;12.80;56.42
41044;BME280;51680;49.806;18.774;2024-02-21T12:03:15;97612.50;;;12.71;56.84
41044;BME280;51680;49.806;18.774;2024-02-21T12:06:17;97624.72;;;12.70;57.00
41044;BME280;51680;49.806;18.774;2024-02-21T12:09:22;97606.69;;;12.41;58.11
41044;BME280;51680;49.806;18.774;2024-02-21T12:12:24;97612.25;;;12.24;58.14
41044;BME280;51680;49.806;18.774;2024-02-21T12:15:26;97618.81;;;12.17;59.24
41044;BME280;51680;49.806;18.774;2024-02-21T12:18:29;97615.38;;;12.16;60.44
41044;BME280;51680;49.806;18.774;2024-02-21T12:21:32;97608.78;;;12.11;61.34
41044;BME280;51680;49.806;18.774;2024-02-21T12:24:37;97607.78;;;11.99;62.67
41044;BME280;51680;49.806;18.774;2024-02-21T12:27:40;97608.72;;;11.86;62.84
41044;BME280;51680;49.806;18.774;2024-02-21T12:30:41;97613.78;;;11.75;64.14
41044;BME280;51680;49.806;18.774;2024-02-21T12:33:45;97606.44;;;11.67;64.69
41044;BME280;51680;49.806;18.774;2024-02-21T12:36:47;97605.81;;;11.64;64.66
41044;BME280;51680;49.806;18.774;2024-02-21T12:39:49;97594.88;;;11.57;65.22
41044;BME280;51680;49.806;18.774;2024-02-21T12:42:51;97596.94;;;11.52;65.60
41044;BME280;51680;49.806;18.774;2024-02-21T12:45:53;97595.09;;;11.54;66.26
41044;BME280;51680;49.806;18.774;2024-02-21T12:48:56;97592.66;;;11.51;66.69
41044;BME280;51680;49.806;18.774;2024-02-21T12:51:58;97584.19;;;11.48;66.49
41044;BME280;51680;49.806;18.774;2024-02-21T12:55:00;97584.31;;;11.32;67.61
41044;BME280;51680;49.806;18.774;2024-02-21T12:58:03;97584.03;;;11.37;67.74
41044;BME280;51680;49.806;18.774;2024-02-21T13:01:06;97576.47;;;11.32;67.98
41044;BME280;51680;49.806;18.774;2024-02-21T13:04:09;97569.22;;;11.23;68.41
41044;BME280;51680;49.806;18.774;2024-02-21T13:07:12;97565.88;;;11.21;68.41
41044;BME280;51680;49.806;18.774;2024-02-21T13:10:14;97562.72;;;11.16;68.66
41044;BME280;51680;49.806;18.774;2024-02-21T13:13:16;97560.28;;;11.13;68.49
41044;BME280;51680;49.806;18.774;2024-02-21T13:16:18;97561.28;;;11.25;68.72
41044;BME280;51680;49.806;18.774;2024-02-21T13:19:21;97557.28;;;11.19;68.95
41044;BME280;51680;49.806;18.774;2024-02-21T13:22:23;97555.59;;;11.18;69.17
41044;BME280;51680;49.806;18.774;2024-02-21T13:25:26;97561.06;;;11.15;69.31
41044;BME280;51680;49.806;18.774;2024-02-21T13:28:28;97559.75;;;11.08;69.51
41044;BME280;51680;49.806;18.774;2024-02-21T13:31:29;97561.63;;;11.06;70.02
41044;BME280;51680;49.806;18.774;2024-02-21T13:34:33;97561.63;;;11.06;70.81
41044;BME280;51680;49.806;18.774;2024-02-21T13:37:35;97566.00;;;11.06;70.14
41044;BME280;51680;49.806;18.774;2024-02-21T13:40:37;97552.84;;;11.07;71.11
41044;BME280;51680;49.806;18.774;2024-02-21T13:43:39;97551.84;;;10.96;71.38
41044;BME280;51680;49.806;18.774;2024-02-21T13:46:41;97544.50;;;10.88;71.54
41044;BME280;51680;49.806;18.774;2024-02-21T13:49:44;97545.06;;;10.79;72.28
41044;BME280;51680;49.806;18.774;2024-02-21T13:52:46;97544.69;;;10.71;72.73
41044;BME280;51680;49.806;18.774;2024-02-21T13:55:48;97544.13;;;10.52;74.06
41044;BME280;51680;49.806;18.774;2024-02-21T13:58:50;97535.19;;;10.42;74.28
41044;BME280;51680;49.806;18.774;2024-02-21T14:01:52;97519.28;;;10.33;74.96
41044;BME280;51680;49.806;18.774;2024-02-21T14:04:55;97533.06;;;10.21;75.28
41044;BME280;51680;49.806;18.774;2024-02-21T14:07:57;97530.75;;;10.16;74.98
41044;BME280;51680;49.806;18.774;2024-02-21T14:10:59;97518.06;;;10.24;74.88
41044;BME280;51680;49.806;18.774;2024-02-21T14:14:01;97515.00;;;10.18;75.39
41044;BME280;51680;49.806;18.774;2024-02-21T14:17:03;97512.66;;;10.13;75.05
41044;BME280;51680;49.806;18.774;2024-02-21T14:20:08;97513.41;;;10.15;75.25
41044;BME280;51680;49.806;18.774;2024-02-21T14:23:10;97501.56;;;10.10;74.83
41044;BME280;51680;49.806;18.774;2024-02-21T14:26:13;97507.63;;;10.10;74.80
41044;BME280;51680;49.806;18.774;2024-02-21T14:29:15;97503.53;;;10.06;75.46
41044;BME280;51680;49.806;18.774;2024-02-21T14:32:17;97504.66;;;10.16;75.28
41044;BME280;51680;49.806;18.774;2024-02-21T14:35:20;97498.03;;;10.25;75.01
41044;BME280;51680;49.806;18.774;2024-02-21T14:38:41;97494.22;;;10.30;74.48
41044;BME280;51680;49.806;18.774;2024-02-21T14:41:44;97494.31;;;10.29;75.49
41044;BME280;51680;49.806;18.774;2024-02-21T14:44:45;97485.44;;;10.17;76.26
41044;BME280;51680;49.806;18.774;2024-02-21T14:47:47;97480.41;;;10.14;76.72
41044;BME280;51680;49.806;18.774;2024-02-21T14:50:50;97466.91;;;10.22;75.87
41044;BME280;51680;49.806;18.774;2024-02-21T14:53:52;97465.66;;;9.99;77.45
41044;BME280;51680;49.806;18.774;2024-02-21T14:56:55;97459.31;;;9.89;77.34
41044;BME280;51680;49.806;18.774;2024-02-21T14:59:57;97456.38;;;9.81;77.59
41044;BME280;51680;49.806;18.774;2024-02-21T15:03:00;97441.81;;;9.77;77.86
41044;BME280;51680;49.806;18.774;2024-02-21T15:06:04;97440.59;;;9.69;78.38
41044;BME280;51680;49.806;18.774;2024-02-21T15:09:06;97446.28;;;9.75;77.35
41044;BME280;51680;49.806;18.774;2024-02-21T15:12:08;97437.91;;;9.70;77.84
41044;BME280;51680;49.806;18.774;2024-02-21T15:15:10;97442.38;;;9.82;76.88
41044;BME280;51680;49.806;18.774;2024-02-21T15:18:12;97442.88;;;9.89;76.20
41044;BME280;51680;49.806;18.774;2024-02-21T15:21:15;97451.69;;;10.00;75.94
41044;BME280;51680;49.806;18.774;2024-02-21T15:24:17;97445.75;;;9.98;75.45
41044;BME280;51680;49.806;18.774;2024-02-21T15:27:19;97444.78;;;9.85;76.20
41044;BME280;51680;49.806;18.774;2024-02-21T15:30:20;97436.97;;;9.85;75.83
41044;BME280;51680;49.806;18.774;2024-02-21T15:33:22;97429.63;;;9.78;75.77
41044;BME280;51680;49.806;18.774;2024-02-21T15:36:26;97429.63;;;9.78;75.80
41044;BME280;51680;49.806;18.774;2024-02-21T15:39:29;97419.66;;;9.70;75.88
41044;BME280;51680;49.806;18.774;2024-02-21T15:42:59;97425.81;;;9.69;77.44
41044;BME280;51680;49.806;18.774;2024-02-21T15:46:02;97407.91;;;9.49;76.77
41044;BME280;51680;49.806;18.774;2024-02-21T15:49:04;97414.50;;;9.41;76.76
41044;BME280;51680;49.806;18.774;2024-02-21T15:52:07;97415.69;;;9.35;76.73
41044;BME280;51680;49.806;18.774;2024-02-21T15:55:09;97412.13;;;9.22;76.77
41044;BME280;51680;49.806;18.774;2024-02-21T15:58:12;97411.19;;;9.23;76.56
41044;BME280;51680;49.806;18.774;2024-02-21T16:01:14;97405.09;;;9.24;76.57